Time;durP1;ratioP1;P1;durP2;ratioP2;P2;SDS_P1;SDS_P2;PMS_P1;PMS_P2;Temp;Humidity;BMP_temperature;BMP_pressure;BME280_temperature;BME280_humidity;BME280_pressure;Samples;Min_cycle;Max_cycle;Signal;HPM_P1;HPM_P2
2023/05/12 00:01:06;;;;;;;4.40;3.38;;;;;;;12.50;62.03;99029.69;5026337;28;20042;-75
2023/05/12 00:03:33;;;;;;;6.15;3.88;;;;;;;12.52;62.08;99026.91;5025544;28;20042;-75
2023/05/12 00:06:02;;;;;;;5.75;3.53;;;;;;;12.51;61.66;99022.56;5009305;28;20104;-75
2023/05/12 00:08:29;;;;;;;4.20;3.50;;;;;;;12.21;61.76;98966.19;5025160;28;20117;-75
2023/05/12 00:10:56;;;;;;;4.38;3.47;;;;;;;12.59;61.91;99035.31;5026759;28;20044;-74
2023/05/12 00:13:23;;;;;;;5.25;4.63;;;;;;;12.64;61.84;99031.41;5026426;28;20049;-74
2023/05/12 00:15:53;;;;;;;4.75;3.58;;;;;;;12.67;62.41;99028.53;5026452;28;20096;-75
2023/05/12 00:18:20;;;;;;;4.60;3.30;;;;;;;12.70;61.79;99033.63;5009056;28;20038;-75
2023/05/12 00:20:47;;;;;;;4.97;3.83;;;;;;;12.68;61.83;99040.00;5025959;28;20368;-75
2023/05/12 00:23:13;;;;;;;5.45;3.92;;;;;;;12.64;62.01;99033.22;5025484;28;20045;-75
2023/05/12 00:25:40;;;;;;;4.78;4.25;;;;;;;12.62;62.18;99035.13;5025555;28;20198;-74
2023/05/12 00:28:07;;;;;;;4.82;3.85;;;;;;;12.59;62.23;99030.00;5025063;28;20060;-74
2023/05/12 00:30:34;;;;;;;4.88;3.80;;;;;;;12.62;62.26;99030.66;5025935;28;20049;-74
2023/05/12 00:33:02;;;;;;;4.68;3.80;;;;;;;12.65;62.36;99026.94;5025948;28;20052;-74
2023/05/12 00:35:28;;;;;;;4.22;3.22;;;;;;;12.68;62.24;99026.72;5026053;28;20183;-75
2023/05/12 00:37:55;;;;;;;4.25;3.70;;;;;;;12.68;62.28;99026.72;5025801;28;20045;-75
2023/05/12 00:40:22;;;;;;;4.07;3.60;;;;;;;12.71;62.29;99024.69;5024967;28;20042;-75
2023/05/12 00:42:49;;;;;;;4.60;3.83;;;;;;;12.76;61.76;99021.72;5026028;28;20053;-74
2023/05/12 00:45:16;;;;;;;5.30;3.85;;;;;;;12.78;61.97;99027.78;5025734;28;20033;-74
2023/05/12 00:47:44;;;;;;;5.72;4.60;;;;;;;12.55;62.11;98980.66;5025964;28;20124;-74
2023/05/12 00:50:13;;;;;;;4.65;3.83;;;;;;;12.81;62.29;99028.44;5026239;28;20060;-75
2023/05/12 00:52:40;;;;;;;4.78;3.63;;;;;;;12.75;62.23;99031.50;5025100;28;20042;-74
2023/05/12 00:55:08;;;;;;;4.40;3.75;;;;;;;12.68;62.95;99032.88;5025542;28;20037;-74
2023/05/12 00:57:34;;;;;;;8.82;4.88;;;;;;;12.62;62.89;99029.81;5024784;28;20313;-74
2023/05/12 01:00:01;;;;;;;4.28;3.70;;;;;;;12.50;63.05;99012.88;5025602;28;20061;-74
2023/05/12 01:02:28;;;;;;;6.38;4.03;;;;;;;12.69;63.03;99033.75;5026083;28;20056;-74
2023/05/12 01:04:55;;;;;;;4.90;3.42;;;;;;;12.74;62.76;99034.28;5024632;28;20041;-74
2023/05/12 01:07:26;;;;;;;4.32;3.75;;;;;;;12.73;63.50;99036.09;5025599;28;20356;-74
2023/05/12 01:09:56;;;;;;;5.20;4.22;;;;;;;11.98;64.24;98919.88;5024672;28;20084;-74
2023/05/12 01:12:22;;;;;;;4.82;3.92;;;;;;;12.58;63.88;99041.59;5025479;28;20049;-75
2023/05/12 01:14:50;;;;;;;4.47;3.97;;;;;;;12.50;64.41;99036.81;5024528;28;20286;-75
2023/05/12 01:17:20;;;;;;;6.07;5.47;;;;;;;12.33;65.17;99029.13;5025416;28;20042;-77
2023/05/12 01:19:49;;;;;;;6.07;4.78;;;;;;;12.42;66.20;99044.44;5024328;28;20069;-74
2023/05/12 01:22:17;;;;;;;4.70;3.88;;;;;;;12.35;65.43;99045.81;5026183;28;20092;-74
2023/05/12 01:24:51;;;;;;;4.45;4.05;;;;;;;12.28;67.60;99044.53;5025895;28;20057;-74
2023/05/12 01:27:21;;;;;;;5.10;4.53;;;;;;;11.68;66.62;98968.75;5024594;28;20133;-74
2023/05/12 01:29:49;;;;;;;4.80;4.22;;;;;;;12.25;66.17;99048.25;5025847;28;20049;-74
2023/05/12 01:32:16;;;;;;;5.22;4.72;;;;;;;12.26;66.07;99049.94;5025569;28;20042;-74
2023/05/12 01:34:43;;;;;;;5.57;4.57;;;;;;;12.24;66.40;99051.00;5027523;28;20056;-74
2023/05/12 01:37:11;;;;;;;6.03;5.05;;;;;;;11.71;66.61;98968.56;5028258;28;20045;-74
2023/05/12 01:39:38;;;;;;;5.63;4.63;;;;;;;12.25;66.76;99048.25;5028449;28;20034;-74
2023/05/12 01:42:05;;;;;;;5.63;4.38;;;;;;;12.34;66.38;99047.63;5028142;28;20050;-74
2023/05/12 01:44:33;;;;;;;6.25;4.20;;;;;;;12.35;66.66;99041.34;5029260;28;20046;-74
2023/05/12 01:47:01;;;;;;;6.03;5.25;;;;;;;12.44;66.49;99051.38;5028860;28;20042;-74
2023/05/12 01:49:28;;;;;;;6.32;4.70;;;;;;;12.49;66.29;99046.59;5028054;28;20069;-74
2023/05/12 01:51:55;;;;;;;6.78;4.82;;;;;;;12.51;66.72;99049.13;5029325;28;20057;-74
2023/05/12 01:54:22;;;;;;;5.15;4.63;;;;;;;12.45;66.96;99049.56;5029326;28;20037;-74
2023/05/12 01:56:48;;;;;;;7.53;4.90;;;;;;;12.44;67.02;99050.50;5028636;28;20042;-74
2023/05/12 01:59:15;;;;;;;5.03;4.25;;;;;;;12.48;67.03;99047.53;5028676;28;20096;-74
2023/05/12 02:01:43;;;;;;;5.03;4.35;;;;;;;12.51;67.76;99052.66;5028852;28;20092;-74
2023/05/12 02:04:10;;;;;;;5.15;4.53;;;;;;;12.51;67.25;99050.00;5028809;28;20064;-75
2023/05/12 02:06:37;;;;;;;8.05;4.32;;;;;;;12.48;66.97;99044.88;5028499;28;20038;-74
2023/05/12 02:09:04;;;;;;;5.05;4.50;;;;;;;10.04;67.00;98635.72;5028750;28;20068;-74
2023/05/12 02:11:30;;;;;;;9.65;4.70;;;;;;;12.51;67.36;99043.81;5028958;28;20045;-74
2023/05/12 02:13:57;;;;;;;5.57;4.97;;;;;;;12.49;67.57;99046.59;5027815;28;20088;-75
2023/05/12 02:16:24;;;;;;;6.38;4.75;;;;;;;12.49;67.41;99049.25;5028518;28;20290;-75
2023/05/12 02:18:52;;;;;;;5.10;4.55;;;;;;;12.38;67.26;99025.19;5028563;28;20049;-74
2023/05/12 02:21:19;;;;;;;5.93;5.10;;;;;;;11.96;66.93;98951.84;5027209;28;20053;-75
2023/05/12 02:23:45;;;;;;;4.63;4.20;;;;;;;12.61;67.32;99049.38;5028465;28;20273;-74
2023/05/12 02:26:12;;;;;;;6.40;5.55;;;;;;;12.61;67.48;99054.69;5028672;28;20041;-74
2023/05/12 02:28:39;;;;;;;5.93;5.32;;;;;;;12.61;67.52;99050.22;5028661;28;20052;-74
2023/05/12 02:31:05;;;;;;;5.10;4.60;;;;;;;12.60;67.54;99056.50;5027188;28;20037;-74
2023/05/12 02:33:32;;;;;;;6.20;5.60;;;;;;;12.61;67.46;99052.03;5028552;28;20056;-73
2023/05/12 02:36:00;;;;;;;6.53;5.68;;;;;;;12.62;67.53;99056.38;5028152;28;20233;-74
2023/05/12 02:38:27;;;;;;;5.70;5.15;;;;;;;12.64;67.14;99054.47;5027099;28;20053;-74
2023/05/12 02:40:54;;;;;;;6.05;5.45;;;;;;;12.57;67.60;99042.56;5028288;28;20081;-75
2023/05/12 02:43:20;;;;;;;5.82;4.82;;;;;;;12.55;67.73;99045.31;5026952;28;20084;-76
2023/05/12 02:45:47;;;;;;;7.35;5.00;;;;;;;12.46;68.29;99057.44;5026591;28;20038;-74
2023/05/12 02:48:14;;;;;;;6.80;5.13;;;;;;;12.32;68.62;99060.16;5027000;28;20045;-74
2023/05/12 02:50:40;;;;;;;6.43;4.88;;;;;;;12.21;68.84;99049.41;5028243;28;20049;-75
2023/05/12 02:53:08;;;;;;;6.13;5.53;;;;;;;12.16;69.44;99056.78;5027646;28;20041;-75
2023/05/12 02:55:35;;;;;;;5.50;5.00;;;;;;;12.09;69.46;99055.50;5027792;28;20076;-74
2023/05/12 02:58:02;;;;;;;6.10;5.30;;;;;;;12.05;69.62;99061.97;5027538;28;20064;-74
2023/05/12 03:00:29;;;;;;;5.65;5.07;;;;;;;12.03;69.55;99062.06;5026657;28;20034;-75
2023/05/12 03:02:56;;;;;;;6.20;5.60;;;;;;;12.11;69.29;99059.75;5027452;28;20042;-75
2023/05/12 03:05:23;;;;;;;5.82;5.22;;;;;;;12.15;69.65;99057.75;5027760;28;20052;-75
2023/05/12 03:07:49;;;;;;;7.57;5.15;;;;;;;12.09;69.90;99060.81;5027876;28;20046;-75
2023/05/12 03:10:18;;;;;;;6.63;6.03;;;;;;;12.04;70.09;99058.44;5026435;28;20042;-74
2023/05/12 03:12:45;;;;;;;6.13;5.53;;;;;;;11.90;70.60;99031.91;5027237;28;20049;-75
2023/05/12 03:15:12;;;;;;;6.93;6.22;;;;;;;12.09;69.59;99063.47;5027400;28;20037;-75
2023/05/12 03:17:39;;;;;;;6.15;5.55;;;;;;;12.14;69.87;99058.69;5027102;28;20046;-75
2023/05/12 03:20:07;;;;;;;6.47;5.85;;;;;;;12.16;69.42;99062.09;5027135;28;20053;-75
2023/05/12 03:22:34;;;;;;;8.15;7.35;;;;;;;12.20;69.73;99058.31;5026236;28;20042;-75
2023/05/12 03:25:02;;;;;;;7.65;6.85;;;;;;;12.25;69.92;99063.31;5026947;28;20042;-75
2023/05/12 03:27:31;;;;;;;7.22;5.85;;;;;;;12.24;69.99;99059.81;5026174;28;20044;-75
2023/05/12 03:29:59;;;;;;;8.07;7.07;;;;;;;12.25;70.13;99061.53;5027191;28;20073;-75
2023/05/12 03:32:26;;;;;;;7.35;6.65;;;;;;;12.08;70.09;99029.88;5027371;28;20183;-75
2023/05/12 03:34:52;;;;;;;7.30;6.30;;;;;;;12.23;70.18;99052.81;5026841;28;20065;-75
2023/05/12 03:37:19;;;;;;;7.38;6.45;;;;;;;12.23;69.87;99060.78;5027335;28;20037;-75
2023/05/12 03:39:46;;;;;;;7.00;6.30;;;;;;;12.26;69.91;99057.91;5025947;28;20076;-75
2023/05/12 03:42:14;;;;;;;8.55;7.05;;;;;;;12.02;69.86;99014.34;5025868;28;20034;-75
2023/05/12 03:44:42;;;;;;;6.88;5.78;;;;;;;12.29;69.99;99059.50;5026649;28;20048;-75
2023/05/12 03:47:09;;;;;;;5.90;5.20;;;;;;;12.31;69.57;99061.13;5026648;28;20045;-75
2023/05/12 03:49:36;;;;;;;6.45;5.75;;;;;;;12.34;69.31;99060.91;5027197;28;20037;-75
2023/05/12 03:52:02;;;;;;;6.40;5.80;;;;;;;12.37;69.49;99057.19;5026596;28;20041;-75
2023/05/12 03:54:29;;;;;;;6.55;5.88;;;;;;;12.36;69.77;99056.34;5026539;28;20261;-75
2023/05/12 03:56:56;;;;;;;5.70;5.15;;;;;;;12.37;69.56;99065.16;5025321;28;20037;-75
2023/05/12 03:59:22;;;;;;;5.15;4.45;;;;;;;12.37;69.37;99055.38;5024983;28;20077;-75
2023/05/12 04:01:52;;;;;;;6.18;5.55;;;;;;;12.35;70.34;99062.63;5025525;28;20305;-75
2023/05/12 04:04:19;;;;;;;6.63;5.65;;;;;;;12.35;70.23;99061.75;5026318;28;20089;-75
2023/05/12 04:06:45;;;;;;;5.70;5.10;;;;;;;12.31;70.29;99063.78;5026291;28;20034;-75
2023/05/12 04:09:12;;;;;;;5.00;4.50;;;;;;;12.16;69.92;99048.81;5026772;28;20050;-75
2023/05/12 04:11:39;;;;;;;7.50;5.00;;;;;;;12.33;69.82;99067.19;5026442;28;20038;-75
2023/05/12 04:14:05;;;;;;;5.32;4.57;;;;;;;12.36;69.75;99063.47;5026148;28;20045;-75
2023/05/12 04:16:34;;;;;;;16.55;5.82;;;;;;;12.39;69.84;99071.22;5025201;28;20356;-75
2023/05/12 04:19:02;;;;;;;6.18;4.82;;;;;;;12.37;70.35;99065.16;5026363;28;20104;-75
2023/05/12 04:21:29;;;;;;;6.95;4.70;;;;;;;12.37;70.17;99073.13;5025837;28;20360;-75
2023/05/12 04:23:56;;;;;;;5.13;4.35;;;;;;;12.35;70.38;99077.72;5026027;28;20217;-75
2023/05/12 04:26:22;;;;;;;5.63;4.78;;;;;;;12.36;69.92;99077.59;5026219;28;20042;-75
2023/05/12 04:28:49;;;;;;;5.47;4.78;;;;;;;12.37;70.08;99087.28;5026443;28;20046;-75
2023/05/12 04:31:16;;;;;;;5.63;4.50;;;;;;;12.37;70.25;99081.97;5026085;28;20104;-75
2023/05/12 04:33:43;;;;;;;6.22;4.80;;;;;;;12.33;70.19;99087.59;5024970;28;20056;-75
2023/05/12 04:36:12;;;;;;;5.53;4.65;;;;;;;12.18;70.27;99065.53;5024938;28;20202;-75
2023/05/12 04:38:39;;;;;;;5.88;5.03;;;;;;;12.36;70.41;99095.34;5026296;28;20121;-75
2023/05/12 04:41:06;;;;;;;5.40;4.90;;;;;;;12.34;70.25;99092.81;5026064;28;20190;-75
2023/05/12 04:43:33;;;;;;;5.28;4.47;;;;;;;12.11;70.30;99073.03;5025372;28;20045;-75
2023/05/12 04:46:00;;;;;;;6.10;4.78;;;;;;;12.28;70.67;99089.69;5024830;28;20210;-75
2023/05/12 04:48:27;;;;;;;5.40;4.90;;;;;;;12.28;70.37;99100.31;5025893;28;20337;-75
2023/05/12 04:50:53;;;;;;;5.20;4.70;;;;;;;12.26;70.65;99099.56;5025952;28;20096;-75
2023/05/12 04:53:21;;;;;;;7.38;4.55;;;;;;;12.17;70.73;99099.22;5026137;28;20054;-75
2023/05/12 04:55:49;;;;;;;5.97;5.38;;;;;;;12.11;70.99;99102.25;5025938;28;20148;-75
2023/05/12 04:58:15;;;;;;;5.55;4.47;;;;;;;12.15;71.43;99097.59;5024691;28;20057;-75
2023/05/12 05:00:42;;;;;;;4.82;4.32;;;;;;;12.16;71.16;99107.25;5025924;28;20053;-75
2023/05/12 05:03:09;;;;;;;4.85;4.30;;;;;;;12.12;71.37;99105.75;5025539;28;20046;-75
2023/05/12 05:05:36;;;;;;;7.03;4.25;;;;;;;12.10;71.02;99103.22;5025704;28;20298;-75
2023/05/12 05:08:02;;;;;;;6.75;4.80;;;;;;;12.12;70.94;99105.75;5025737;28;20050;-75
2023/05/12 05:10:31;;;;;;;5.15;4.65;;;;;;;12.08;71.18;99105.09;5028965;28;20302;-75
2023/05/12 05:12:57;;;;;;;6.65;4.50;;;;;;;12.12;71.15;99103.97;5028630;28;20049;-75
2023/05/12 05:15:24;;;;;;;5.10;4.47;;;;;;;12.16;71.26;99107.25;5029896;28;20100;-75
2023/05/12 05:17:51;;;;;;;4.90;4.13;;;;;;;12.18;70.96;99100.94;5028387;28;20198;-75
2023/05/12 05:20:18;;;;;;;6.03;4.57;;;;;;;11.52;71.45;98989.28;5029319;28;20068;-75
2023/05/12 05:22:44;;;;;;;6.97;4.28;;;;;;;12.01;71.54;99079.91;5028935;28;20045;-75
2023/05/12 05:25:12;;;;;;;5.30;4.38;;;;;;;12.17;71.45;99107.19;5028439;28;20112;-75
2023/05/12 05:27:40;;;;;;;5.88;4.40;;;;;;;12.19;71.84;99102.63;5029234;28;20062;-75
2023/05/12 05:30:08;;;;;;;4.60;4.03;;;;;;;12.20;71.69;99098.19;5029387;28;20061;-75
2023/05/12 05:32:36;;;;;;;4.45;3.83;;;;;;;12.19;71.60;99099.13;5029372;28;20042;-75
2023/05/12 05:35:03;;;;;;;5.22;4.00;;;;;;;12.15;71.63;99100.25;5028292;28;20037;-75
2023/05/12 05:37:30;;;;;;;5.68;4.32;;;;;;;12.18;71.47;99105.41;5029289;28;20042;-75
2023/05/12 05:39:57;;;;;;;5.22;3.92;;;;;;;12.16;71.66;99102.84;5029167;28;20045;-75
2023/05/12 05:42:24;;;;;;;4.95;4.30;;;;;;;12.18;71.51;99106.25;5028012;28;20041;-75
2023/05/12 05:44:52;;;;;;;5.45;4.13;;;;;;;12.19;71.31;99097.31;5029103;28;20049;-75
2023/05/12 05:47:19;;;;;;;5.70;4.38;;;;;;;12.23;71.74;99099.78;5027886;28;20081;-75
2023/05/12 05:49:46;;;;;;;5.50;3.80;;;;;;;12.19;71.68;99099.97;5028941;28;20201;-75
2023/05/12 05:52:12;;;;;;;5.95;4.75;;;;;;;12.17;71.44;99101.88;5029297;28;20049;-75
2023/05/12 05:54:39;;;;;;;5.28;4.03;;;;;;;11.92;71.66;99061.03;5029149;28;20233;-75
2023/05/12 05:57:06;;;;;;;5.30;4.10;;;;;;;12.23;71.67;99105.94;5027539;28;20112;-75
2023/05/12 05:59:33;;;;;;;5.32;3.65;;;;;;;12.23;71.53;99094.47;5027813;28;20052;-75
2023/05/12 06:02:02;;;;;;;4.82;4.05;;;;;;;12.22;71.80;99101.59;5029072;28;20092;-75
2023/05/12 06:04:29;;;;;;;4.22;3.67;;;;;;;12.24;72.15;99105.00;5028782;28;20038;-75
2023/05/12 06:06:55;;;;;;;6.20;4.20;;;;;;;12.23;72.23;99103.28;5028934;28;20056;-75
2023/05/12 06:09:22;;;;;;;4.53;3.80;;;;;;;12.24;72.03;99112.97;5029065;28;20050;-75
2023/05/12 06:11:49;;;;;;;4.65;4.03;;;;;;;12.21;71.91;99115.81;5028909;28;20049;-75
2023/05/12 06:14:16;;;;;;;5.07;3.75;;;;;;;12.03;72.50;99093.09;5028611;28;20108;-74
2023/05/12 06:16:42;;;;;;;6.53;4.20;;;;;;;12.21;72.18;99125.59;5028215;28;20297;-75
2023/05/12 06:19:11;;;;;;;4.57;3.38;;;;;;;12.23;72.26;99132.50;5028536;28;20050;-75
2023/05/12 06:21:37;;;;;;;4.57;3.60;;;;;;;12.23;72.36;99136.97;5027024;28;20061;-75
2023/05/12 06:24:04;;;;;;;4.20;3.70;;;;;;;12.22;72.14;99129.97;5028709;28;20045;-75
2023/05/12 06:26:31;;;;;;;4.65;3.75;;;;;;;12.14;72.58;99136.59;5028114;28;20105;-75
2023/05/12 06:28:57;;;;;;;5.60;4.50;;;;;;;12.13;72.62;99144.66;5027199;28;20049;-75
2023/05/12 06:31:24;;;;;;;4.10;3.30;;;;;;;12.11;72.92;99144.75;5028475;28;20045;-75
2023/05/12 06:33:51;;;;;;;4.63;3.90;;;;;;;12.13;72.80;99140.19;5028228;28;20046;-75
2023/05/12 06:36:19;;;;;;;5.90;4.20;;;;;;;12.10;72.90;99137.75;5027003;28;20096;-75
2023/05/12 06:38:45;;;;;;;4.72;3.60;;;;;;;12.17;72.72;99138.22;5028218;28;20309;-75
2023/05/12 06:41:12;;;;;;;6.55;3.75;;;;;;;12.20;72.61;99188.50;5026869;28;20041;-75
2023/05/12 06:43:39;;;;;;;4.97;3.67;;;;;;;12.22;72.73;99137.94;5027954;28;20294;-75
2023/05/12 06:46:07;;;;;;;6.30;4.13;;;;;;;12.22;72.87;99128.16;5027748;28;20088;-75
2023/05/12 06:48:34;;;;;;;5.55;3.30;;;;;;;12.26;72.61;99132.31;5027690;28;20046;-75
2023/05/12 06:51:00;;;;;;;4.68;3.85;;;;;;;12.28;72.94;99142.84;5026771;28;20128;-75
2023/05/12 06:53:29;;;;;;;4.65;3.70;;;;;;;12.24;72.83;99139.53;5027718;28;20197;-75
2023/05/12 06:55:55;;;;;;;5.75;3.80;;;;;;;12.24;72.84;99134.22;5028053;28;20064;-75
2023/05/12 06:58:22;;;;;;;4.40;3.42;;;;;;;12.20;73.09;99132.72;5027925;28;20041;-75
2023/05/12 07:00:49;;;;;;;4.63;4.03;;;;;;;12.24;72.95;99131.56;5027418;28;20108;-75
2023/05/12 07:03:16;;;;;;;5.07;3.60;;;;;;;10.99;73.15;98918.44;5027082;28;20045;-75
2023/05/12 07:05:43;;;;;;;4.60;3.78;;;;;;;12.29;73.12;99139.22;5027401;28;20329;-75
2023/05/12 07:08:09;;;;;;;5.20;3.25;;;;;;;12.32;72.85;99142.53;5027215;28;20041;-75
2023/05/12 07:10:38;;;;;;;4.45;3.65;;;;;;;12.32;73.04;99134.56;5027195;28;20046;-75
2023/05/12 07:13:06;;;;;;;5.60;4.10;;;;;;;12.35;73.03;99144.13;5027733;28;20053;-75
2023/05/12 07:15:34;;;;;;;4.03;3.20;;;;;;;12.34;72.83;99139.78;5026323;28;20038;-75
2023/05/12 07:18:01;;;;;;;5.40;3.58;;;;;;;12.33;73.26;99143.38;5027400;28;20045;-75
2023/05/12 07:20:27;;;;;;;4.45;3.42;;;;;;;12.32;73.05;99144.34;5026845;28;20227;-75
2023/05/12 07:22:55;;;;;;;7.03;3.55;;;;;;;12.33;72.85;99138.94;5027381;28;20112;-75
2023/05/12 07:25:22;;;;;;;8.45;4.32;;;;;;;12.34;73.03;99135.31;5027488;28;20052;-74
2023/05/12 07:27:50;;;;;;;7.25;5.22;;;;;;;12.35;73.17;99133.50;5026091;28;20233;-75
2023/05/12 07:30:17;;;;;;;5.25;4.25;;;;;;;12.34;72.86;99131.81;5027418;28;20092;-74
2023/05/12 07:32:44;;;;;;;4.18;3.63;;;;;;;12.37;73.35;99135.13;5026922;28;20294;-75
2023/05/12 07:35:11;;;;;;;7.05;4.63;;;;;;;12.40;73.01;99139.38;5027356;28;20080;-74
2023/05/12 07:37:38;;;;;;;4.20;3.80;;;;;;;12.41;72.89;99138.41;5026817;28;20045;-75
2023/05/12 07:40:05;;;;;;;8.43;3.95;;;;;;;12.37;72.75;99135.13;5025697;28;20199;-75
2023/05/12 07:42:32;;;;;;;5.47;3.33;;;;;;;12.19;72.75;99118.56;5026639;28;20053;-75
2023/05/12 07:45:00;;;;;;;5.35;3.53;;;;;;;12.34;72.72;99148.59;5027140;28;20274;-75
2023/05/12 07:47:28;;;;;;;4.68;3.38;;;;;;;12.34;72.57;99151.25;5026516;28;20037;-75
2023/05/12 07:49:55;;;;;;;5.13;3.70;;;;;;;11.59;72.75;99033.06;5026492;28;20046;-75
2023/05/12 07:52:22;;;;;;;6.53;4.30;;;;;;;12.28;72.69;99164.09;5026474;28;20072;-75
2023/05/12 07:54:49;;;;;;;5.00;3.95;;;;;;;11.78;72.91;99084.00;5026451;28;20038;-75
2023/05/12 07:57:16;;;;;;;6.35;3.75;;;;;;;12.33;72.86;99164.66;5026867;28;20122;-75
2023/05/12 07:59:43;;;;;;;7.38;3.50;;;;;;;12.30;72.90;99165.69;5026616;28;20197;-75
2023/05/12 08:02:11;;;;;;;7.95;3.97;;;;;;;12.30;72.88;99170.16;5025466;28;20038;-75
2023/05/12 08:04:39;;;;;;;4.72;3.60;;;;;;;12.27;73.15;99165.06;5025691;28;20045;-75
2023/05/12 08:07:06;;;;;;;4.32;3.45;;;;;;;12.29;73.19;99176.44;5025408;28;20038;-75
2023/05/12 08:09:33;;;;;;;5.15;3.80;;;;;;;12.25;73.01;99173.13;5026519;28;20294;-75
2023/05/12 08:12:00;;;;;;;3.92;3.13;;;;;;;12.22;72.99;99180.44;5025231;28;20057;-75
2023/05/12 08:14:28;;;;;;;5.50;3.72;;;;;;;12.20;73.14;99172.56;5026539;28;20037;-75
2023/05/12 08:16:55;;;;;;;5.60;3.90;;;;;;;12.26;73.01;99184.59;5025867;28;20257;-75
2023/05/12 08:19:23;;;;;;;4.22;3.63;;;;;;;12.29;73.16;99179.94;5026538;28;20069;-75
2023/05/12 08:21:50;;;;;;;5.35;4.10;;;;;;;12.27;73.03;99171.22;5025635;28;20062;-75
2023/05/12 08:24:17;;;;;;;4.50;3.20;;;;;;;12.26;73.46;99188.09;5024935;28;20187;-75
2023/05/12 08:26:43;;;;;;;4.45;3.92;;;;;;;12.03;73.82;99143.53;5024863;28;20046;-75
2023/05/12 08:29:10;;;;;;;5.93;3.95;;;;;;;12.28;73.55;99186.22;5025733;28;20046;-75
2023/05/12 08:31:38;;;;;;;5.25;3.72;;;;;;;12.31;73.68;99190.47;5026034;28;20045;-75
2023/05/12 08:34:05;;;;;;;5.25;3.63;;;;;;;12.13;73.57;99145.50;5025866;28;20056;-75
2023/05/12 08:36:34;;;;;;;4.20;3.42;;;;;;;12.38;73.69;99182.00;5024888;28;20048;-75
2023/05/12 08:39:01;;;;;;;4.28;3.60;;;;;;;12.04;73.46;99142.59;5025716;28;20038;-75
2023/05/12 08:41:40;;;;;;;5.30;3.80;;;;;;;12.25;73.97;99173.13;5025873;28;20109;-75
2023/05/12 08:44:08;;;;;;;7.38;5.15;;;;;;;12.28;73.55;99186.22;5025675;28;20066;-75
2023/05/12 08:46:35;;;;;;;5.97;4.93;;;;;;;12.34;73.63;99185.81;5025058;28;20072;-75
2023/05/12 08:49:04;;;;;;;4.22;3.25;;;;;;;12.33;73.42;99183.25;5024695;28;20250;-75
2023/05/12 08:51:36;;;;;;;5.13;4.18;;;;;;;12.33;73.75;99177.94;5025383;28;20037;-75
2023/05/12 08:54:04;;;;;;;4.72;3.70;;;;;;;12.29;72.89;99182.59;5025843;28;20092;-75
2023/05/12 08:56:32;;;;;;;5.40;3.67;;;;;;;12.27;73.15;99183.66;5025831;28;20100;-75
2023/05/12 08:59:02;;;;;;;4.70;3.60;;;;;;;12.21;73.41;99182.25;5024933;28;20116;-75
2023/05/12 09:01:30;;;;;;;5.07;3.38;;;;;;;12.27;73.84;99181.84;5025772;28;20133;-75
2023/05/12 09:03:56;;;;;;;4.82;4.10;;;;;;;12.25;73.56;99189.06;5024830;28;20216;-75
2023/05/12 09:06:23;;;;;;;3.67;3.20;;;;;;;12.24;73.33;99195.31;5025698;28;20045;-75
2023/05/12 09:08:52;;;;;;;4.50;3.72;;;;;;;12.21;73.61;99195.53;5025460;28;20037;-75
2023/05/12 09:11:20;;;;;;;5.18;3.83;;;;;;;12.13;73.78;99205.75;5025361;28;20045;-75
2023/05/12 09:13:52;;;;;;;5.20;3.53;;;;;;;12.09;73.67;99206.91;5025432;28;20252;-75
2023/05/12 09:16:23;;;;;;;5.50;3.60;;;;;;;11.79;73.78;99167.19;5025651;28;20104;-75
2023/05/12 09:18:53;;;;;;;7.97;3.70;;;;;;;12.06;73.92;99218.56;5025810;28;20274;-75
2023/05/12 09:21:21;;;;;;;5.70;3.75;;;;;;;9.79;73.72;98844.66;5025146;28;20109;-75
2023/05/12 09:23:56;;;;;;;4.50;3.58;;;;;;;11.61;74.51;99179.78;5025541;28;20049;-75
2023/05/12 09:26:24;;;;;;;5.75;4.53;;;;;;;11.80;74.22;99229.94;5025337;28;20052;-75
2023/05/12 09:28:54;;;;;;;4.15;3.55;;;;;;;11.70;74.57;99232.31;5025838;28;20309;-75
2023/05/12 09:31:22;;;;;;;6.13;4.57;;;;;;;11.67;74.83;99227.19;5025751;28;20038;-75
2023/05/12 09:33:50;;;;;;;6.05;4.43;;;;;;;11.63;75.01;99227.47;5024356;28;20100;-75
2023/05/12 09:36:18;;;;;;;5.45;3.72;;;;;;;11.63;75.38;99220.38;5024396;28;20085;-75
2023/05/12 09:38:45;;;;;;;5.30;4.65;;;;;;;11.67;75.14;99227.19;5025076;28;20064;-75
2023/05/12 09:41:13;;;;;;;5.55;4.25;;;;;;;11.68;74.96;99228.91;5024116;28;20084;-76
2023/05/12 09:43:45;;;;;;;5.80;5.03;;;;;;;11.42;76.04;99179.22;5025346;28;20041;-76
2023/05/12 09:46:13;;;;;;;6.18;4.40;;;;;;;11.72;75.06;99233.06;5025100;28;20037;-75
2023/05/12 09:48:40;;;;;;;5.47;4.03;;;;;;;11.66;74.53;99229.94;5025686;28;20189;-76
2023/05/12 09:51:11;;;;;;;5.97;4.30;;;;;;;11.59;74.81;99226.81;5025267;28;20042;-76
2023/05/12 09:53:43;;;;;;;5.05;3.60;;;;;;;11.58;74.95;99227.75;5025488;28;20045;-75
2023/05/12 09:56:16;;;;;;;6.32;4.90;;;;;;;11.41;74.58;99202.25;5026465;28;20060;-76
2023/05/12 09:58:44;;;;;;;5.50;4.38;;;;;;;11.58;74.49;99235.72;5029109;28;20108;-76
2023/05/12 10:01:13;;;;;;;6.32;4.25;;;;;;;11.57;74.69;99237.53;5027607;28;20045;-75
2023/05/12 10:03:41;;;;;;;5.40;4.53;;;;;;;11.62;74.46;99233.75;5028579;28;20038;-76
2023/05/12 10:06:13;;;;;;;7.78;4.60;;;;;;;11.16;74.47;99163.09;5028653;28;20034;-75
2023/05/12 10:08:45;;;;;;;4.78;3.95;;;;;;;11.54;75.12;99229.75;5027664;28;20298;-76
2023/05/12 10:11:14;;;;;;;5.82;5.00;;;;;;;11.51;74.67;99237.91;5028429;28;20048;-76
2023/05/12 10:13:42;;;;;;;6.10;4.85;;;;;;;11.53;74.22;99232.50;5028332;28;20046;-76
2023/05/12 10:16:10;;;;;;;7.88;5.10;;;;;;;11.55;74.19;99228.81;5028740;28;20097;-76
2023/05/12 10:18:38;;;;;;;5.95;4.90;;;;;;;11.59;73.85;99229.47;5027054;28;20060;-75
2023/05/12 10:21:07;;;;;;;5.25;4.10;;;;;;;11.55;73.68;99239.41;5028042;28;20052;-75
2023/05/12 10:23:35;;;;;;;4.65;4.03;;;;;;;11.52;73.66;99244.91;5027311;28;20050;-75
2023/05/12 10:26:02;;;;;;;7.57;5.88;;;;;;;11.47;73.65;99246.13;5027254;28;20356;-75
2023/05/12 10:28:31;;;;;;;6.05;4.78;;;;;;;11.44;74.04;99238.38;5028579;28;20045;-75
2023/05/12 10:30:58;;;;;;;8.57;5.70;;;;;;;11.50;74.02;99238.84;5027674;28;20065;-75
2023/05/12 10:33:26;;;;;;;5.93;4.53;;;;;;;11.49;73.80;99233.63;5028006;28;20046;-75
2023/05/12 10:35:53;;;;;;;5.35;4.78;;;;;;;11.22;73.83;99191.06;5027295;28;20038;-75
2023/05/12 10:38:20;;;;;;;9.45;4.80;;;;;;;11.18;73.48;99173.63;5027340;28;20320;-74
2023/05/12 10:40:52;;;;;;;4.82;4.32;;;;;;;11.55;73.55;99247.38;5028031;28;20109;-75
2023/05/12 10:43:23;;;;;;;6.32;4.30;;;;;;;11.54;72.92;99243.03;5026719;28;20060;-75
2023/05/12 10:46:10;;;;;;;6.05;4.35;;;;;;;11.41;73.11;99218.19;5027811;28;20045;-75
2023/05/12 10:48:38;;;;;;;4.18;3.70;;;;;;;11.62;72.64;99241.69;5027646;28;20030;-75
2023/05/12 10:51:09;;;;;;;6.45;4.32;;;;;;;11.68;72.83;99247.50;5027556;28;20049;-75
2023/05/12 10:53:36;;;;;;;6.10;4.50;;;;;;;11.71;72.15;99249.94;5010711;28;20034;-75
2023/05/12 10:56:04;;;;;;;5.85;4.20;;;;;;;11.41;71.59;99212.88;5010369;28;20046;-75
2023/05/12 10:58:31;;;;;;;5.88;3.67;;;;;;;11.61;70.69;99243.50;5027707;28;20045;-75
2023/05/12 11:01:04;;;;;;;6.35;4.05;;;;;;;11.54;70.60;99252.78;5027301;28;20060;-75
2023/05/12 11:03:33;;;;;;;5.07;4.15;;;;;;;11.48;71.08;99251.34;5027440;28;20236;-75
2023/05/12 11:06:01;;;;;;;5.03;4.45;;;;;;;11.44;71.04;99246.31;5026538;28;20046;-75
2023/05/12 11:08:29;;;;;;;4.80;4.25;;;;;;;11.49;71.48;99250.41;5026834;28;20205;-76
2023/05/12 11:10:56;;;;;;;6.90;4.15;;;;;;;11.27;70.99;99202.25;5026646;28;20049;-75
2023/05/12 11:13:24;;;;;;;7.00;4.10;;;;;;;11.34;70.91;99216.00;5010755;28;20037;-75
2023/05/12 11:15:51;;;;;;;5.18;4.10;;;;;;;11.01;70.63;99181.72;5026210;28;20042;-75
2023/05/12 11:18:21;;;;;;;6.10;4.75;;;;;;;11.52;70.85;99252.88;5027243;28;20302;-75
2023/05/12 11:20:50;;;;;;;6.53;4.22;;;;;;;11.31;71.17;99209.06;5026627;28;20057;-75
2023/05/12 11:23:27;;;;;;;6.00;4.88;;;;;;;11.54;71.99;99252.78;5027370;28;20054;-75
2023/05/12 11:25:54;;;;;;;7.03;4.90;;;;;;;11.44;71.84;99225.09;5027304;28;20118;-75
2023/05/12 11:28:21;;;;;;;6.28;4.57;;;;;;;11.68;71.46;99257.25;5026023;28;20101;-75
2023/05/12 11:30:52;;;;;;;4.78;4.28;;;;;;;11.73;71.73;99248.06;5025878;28;20075;-76
2023/05/12 11:33:23;;;;;;;5.22;4.72;;;;;;;11.20;71.56;99171.72;5025981;28;20084;-73
2023/05/12 11:35:51;;;;;;;6.88;5.07;;;;;;;11.79;71.35;99265.41;5026644;28;20038;-73